Time;durP1;ratioP1;P1;durP2;ratioP2;P2;SDS_P1;SDS_P2;PMS_P1;PMS_P2;Temp;Humidity;BMP_temperature;BMP_pressure;BME280_temperature;BME280_humidity;BME280_pressure;Samples;Min_cycle;Max_cycle;Signal;HPM_P1;HPM_P2
2023/10/10 00:01:14;;;;;;;3.95;1.80;;;;;;;3.63;100.00;99441.41;5139198;28;20404;-60
2023/10/10 00:03:45;;;;;;;4.55;1.60;;;;;;;3.68;100.00;99437.75;5139020;28;20149;-61
2023/10/10 00:06:13;;;;;;;3.00;1.38;;;;;;;3.71;100.00;99446.06;5139442;28;20365;-63
2023/10/10 00:08:40;;;;;;;5.10;2.03;;;;;;;3.68;100.00;99443.97;5139101;28;20348;-59
2023/10/10 00:11:10;;;;;;;3.08;1.50;;;;;;;3.69;100.00;99445.56;5139069;28;20062;-62
2023/10/10 00:13:42;;;;;;;6.88;1.88;;;;;;;3.72;100.00;99444.94;5138899;28;20055;-60
2023/10/10 00:16:09;;;;;;;1.88;1.67;;;;;;;3.72;100.00;99442.22;5139324;28;20046;-63
2023/10/10 00:18:41;;;;;;;2.28;1.55;;;;;;;3.72;100.00;99438.72;5138811;28;20047;-61
2023/10/10 00:21:08;;;;;;;3.20;1.58;;;;;;;3.67;100.00;99439.66;5138840;28;20058;-62
2023/10/10 00:23:39;;;;;;;3.10;1.55;;;;;;;3.66;100.00;99434.53;5139054;28;20429;-60
2023/10/10 00:26:05;;;;;;;2.92;1.50;;;;;;;3.58;100.00;99441.53;5138889;28;20051;-63
2023/10/10 00:28:34;;;;;;;1.88;1.45;;;;;;;3.55;100.00;99436.72;5138899;28;20050;-61
2023/10/10 00:31:03;;;;;;;3.83;1.40;;;;;;;3.50;100.00;99436.88;5138693;28;20443;-62
2023/10/10 00:33:31;;;;;;;1.60;1.45;;;;;;;3.61;100.00;99445.53;5139193;28;20108;-60
2023/10/10 00:35:57;;;;;;;5.63;1.60;;;;;;;3.50;100.00;99440.38;5138702;28;20329;-62
2023/10/10 00:38:24;;;;;;;3.83;1.58;;;;;;;3.40;100.00;99440.63;5139006;28;20055;-64
2023/10/10 00:40:51;;;;;;;3.60;1.52;;;;;;;3.43;100.00;99434.59;5138447;28;20104;-61
2023/10/10 00:43:17;;;;;;;7.03;1.63;;;;;;;3.48;100.00;99436.38;5138888;28;20139;-61
2023/10/10 00:45:52;;;;;;;2.13;1.60;;;;;;;3.27;100.00;99436.88;5138370;28;20052;-62
2023/10/10 00:48:21;;;;;;;;;;;;;;;3.38;100.00;99447.47;5138974;28;20115;-60
2023/10/10 00:50:51;;;;;;;5.78;2.08;;;;;;;3.02;100.00;99448.34;5138569;28;20281;-62
2023/10/10 00:53:21;;;;;;;4.78;1.95;;;;;;;3.32;100.00;99446.78;5138202;28;20051;-63
2023/10/10 00:55:56;;;;;;;1.67;1.55;;;;;;;3.13;100.00;99449.69;5138254;27;20432;-59
2023/10/10 00:58:24;;;;;;;2.72;1.70;;;;;;;3.53;100.00;99434.34;5138269;28;20047;-60
2023/10/10 01:00:55;;;;;;;2.17;1.77;;;;;;;3.75;100.00;99452.44;5138509;28;20138;-62
2023/10/10 01:03:21;;;;;;;2.95;1.48;;;;;;;3.75;100.00;99457.88;5138129;28;20054;-63
2023/10/10 01:05:52;;;;;;;2.35;1.70;;;;;;;3.75;100.00;99468.72;5138563;28;20383;-63
2023/10/10 01:08:19;;;;;;;4.55;1.75;;;;;;;3.75;100.00;99466.00;5138288;28;20104;-60
2023/10/10 01:10:47;;;;;;;7.15;1.98;;;;;;;3.80;100.00;99465.09;5138007;28;20047;-62
2023/10/10 01:13:13;;;;;;;2.30;1.63;;;;;;;4.04;100.00;99480.97;5138275;28;20301;-63
2023/10/10 01:15:43;;;;;;;1.80;1.40;;;;;;;4.07;100.00;99474.13;5138076;28;20054;-61
2023/10/10 01:18:13;;;;;;;1.55;1.45;;;;;;;4.09;100.00;99466.44;5138124;28;20294;-62
2023/10/10 01:20:45;;;;;;;4.13;2.00;;;;;;;4.03;100.00;99460.34;5137931;28;20051;-60
2023/10/10 01:23:12;;;;;;;4.93;1.63;;;;;;;3.93;100.00;99447.06;5138409;28;20058;-63
2023/10/10 01:25:45;;;;;;;5.15;1.30;;;;;;;3.89;100.00;99429.84;5137796;28;20047;-62
2023/10/10 01:28:23;;;;;;;9.27;2.40;;;;;;;3.81;100.00;99412.44;5138264;28;20047;-62
2023/10/10 01:30:59;;;;;;;2.60;1.88;;;;;;;3.63;100.00;99411.56;5137823;28;20054;-63
2023/10/10 01:33:35;;;;;;;3.45;1.73;;;;;;;3.71;100.00;99421.66;5138116;28;20058;-60
2023/10/10 01:36:03;;;;;;;2.90;1.50;;;;;;;3.62;100.00;99422.72;5137913;28;20051;-60
2023/10/10 01:38:56;;;;;;;3.42;1.60;;;;;;;3.62;100.00;99428.94;5137734;28;20043;-60
2023/10/10 01:41:23;;;;;;;4.88;1.50;;;;;;;3.45;100.00;99416.09;5137994;28;20112;-61
2023/10/10 01:43:53;;;;;;;5.13;1.73;;;;;;;3.32;100.00;99421.59;5137777;28;20051;-63
2023/10/10 01:46:27;;;;;;;3.05;1.30;;;;;;;3.33;100.00;99426.69;5137979;28;20051;-61
2023/10/10 01:48:53;;;;;;;2.08;1.50;;;;;;;3.48;100.00;99447.22;5137690;28;20051;-61
2023/10/10 01:51:20;;;;;;;3.13;1.75;;;;;;;3.37;100.00;99446.69;5137276;28;20058;-62
2023/10/10 01:53:48;;;;;;;3.92;1.48;;;;;;;3.45;100.00;99458.66;5137660;28;20086;-62
2023/10/10 01:56:14;;;;;;;3.25;1.70;;;;;;;3.38;100.00;99450.19;5137440;28;20361;-62
2023/10/10 01:58:41;;;;;;;6.97;1.42;;;;;;;3.41;100.00;99460.41;5137536;28;20051;-61
2023/10/10 02:01:12;;;;;;;1.95;1.48;;;;;;;3.47;100.00;99467.31;5137375;28;20078;-63
2023/10/10 02:03:39;;;;;;;2.63;1.45;;;;;;;3.63;100.00;99484.78;5137641;28;20375;-61
2023/10/10 02:06:08;;;;;;;5.20;1.90;;;;;;;3.76;100.00;99486.56;5137234;28;20046;-62
2023/10/10 02:08:35;;;;;;;3.65;1.25;;;;;;;3.88;100.00;99483.28;5136932;28;20113;-64
2023/10/10 02:11:02;;;;;;;5.85;2.05;;;;;;;4.01;100.00;99482.38;5137098;28;20054;-63
2023/10/10 02:13:33;;;;;;;7.72;1.92;;;;;;;4.05;100.00;99482.56;5137567;28;20145;-61
2023/10/10 02:16:00;;;;;;;2.60;2.13;;;;;;;4.09;100.00;99461.03;5137367;28;20055;-62
2023/10/10 02:18:39;;;;;;;6.32;1.90;;;;;;;4.18;100.00;99457.22;5137226;28;20051;-62
2023/10/10 02:21:07;;;;;;;3.28;1.73;;;;;;;3.95;100.00;99440.25;5137391;28;20260;-63
2023/10/10 02:23:34;;;;;;;5.53;1.75;;;;;;;4.11;100.00;99440.63;5137024;28;20065;-61
2023/10/10 02:26:14;;;;;;;2.67;1.52;;;;;;;4.04;100.00;99415.84;5137411;28;20043;-61
2023/10/10 02:28:47;;;;;;;2.13;1.80;;;;;;;4.17;100.00;99411.44;5136960;28;20142;-62
2023/10/10 02:31:16;;;;;;;3.17;1.50;;;;;;;4.25;100.00;99400.56;5137339;28;20055;-63
2023/10/10 02:33:48;;;;;;;2.67;1.42;;;;;;;4.19;100.00;99395.63;5137483;28;20043;-62
2023/10/10 02:36:16;;;;;;;10.27;1.63;;;;;;;4.07;100.00;99363.69;5136977;28;20055;-61
2023/10/10 02:38:54;;;;;;;2.15;1.60;;;;;;;3.87;100.00;99351.50;5137005;28;20324;-60
2023/10/10 02:41:28;;;;;;;2.58;1.70;;;;;;;3.89;100.00;99372.88;5136970;28;20059;-63
2023/10/10 02:44:04;;;;;;;5.45;1.48;;;;;;;4.09;100.00;99366.84;5136979;28;20047;-62
2023/10/10 02:46:34;;;;;;;3.80;1.70;;;;;;;4.13;100.00;99350.75;5136672;28;20140;-61
2023/10/10 02:49:09;;;;;;;3.33;1.67;;;;;;;4.07;100.00;99328.41;5137100;28;20047;-60
2023/10/10 02:51:36;;;;;;;2.67;1.50;;;;;;;4.13;100.00;99315.47;5136661;28;20062;-61
2023/10/10 02:54:19;;;;;;;4.00;1.70;;;;;;;4.20;100.00;99296.81;5137000;28;20047;-63
2023/10/10 02:56:45;;;;;;;2.85;1.50;;;;;;;4.11;100.00;99317.72;5136871;28;20043;-63
2023/10/10 02:59:13;;;;;;;3.35;1.63;;;;;;;4.31;100.00;99297.28;5136698;28;20078;-62
2023/10/10 03:01:56;;;;;;;2.75;1.70;;;;;;;4.25;100.00;99292.00;5136492;28;20051;-63
2023/10/10 03:04:22;;;;;;;3.15;1.40;;;;;;;4.07;100.00;99295.84;5136072;28;20078;-62
2023/10/10 03:06:49;;;;;;;2.88;2.13;;;;;;;4.03;100.00;99322.00;5136897;28;20051;-62
2023/10/10 03:09:38;;;;;;;1.67;1.55;;;;;;;4.11;100.00;99321.22;5136185;28;20100;-62
2023/10/10 03:12:04;;;;;;;1.58;1.48;;;;;;;4.14;100.00;99306.22;5136169;28;20073;-63
2023/10/10 03:14:33;;;;;;;2.33;1.70;;;;;;;3.99;100.00;99288.50;5136636;28;20363;-59
2023/10/10 03:17:05;;;;;;;3.72;1.65;;;;;;;4.16;100.00;99312.13;5136319;28;20043;-62
2023/10/10 03:19:38;;;;;;;1.58;1.30;;;;;;;3.97;100.00;99296.97;5137645;27;20043;-62
2023/10/10 03:25:05;;;;;;;3.72;1.42;;;;;;;3.99;100.00;99324.56;5139892;28;20047;-61
2023/10/10 03:27:50;;;;;;;5.30;1.55;;;;;;;4.09;100.00;99337.00;5139630;28;20404;-62
2023/10/10 03:30:19;;;;;;;1.73;1.42;;;;;;;3.98;100.00;99357.44;5139529;28;20058;-62
2023/10/10 03:33:08;;;;;;;7.72;1.92;;;;;;;3.84;100.00;99368.41;5139969;28;20409;-61
2023/10/10 03:35:52;;;;;;;2.45;1.80;;;;;;;3.99;100.00;99389.66;5139492;28;20058;-63
2023/10/10 03:41:25;;;;;;;4.07;1.42;;;;;;;4.04;100.00;99374.38;5139518;28;20207;-63
2023/10/10 05:25:14;;;;;;;3.67;2.10;;;;;;;4.33;100.00;99485.03;5137699;28;20099;-65
2023/10/10 05:27:41;;;;;;;3.53;1.70;;;;;;;4.43;100.00;99487.44;5137772;28;20047;-65
2023/10/10 05:30:07;;;;;;;3.40;1.83;;;;;;;4.48;100.00;99458.25;5134886;27;20131;-60
2023/10/10 05:32:33;;;;;;;5.72;2.10;;;;;;;4.32;100.00;99457.09;5158379;27;20141;-62
2023/10/10 05:35:01;;;;;;;7.82;2.08;;;;;;;4.38;100.00;99471.34;5158273;27;20052;-64
2023/10/10 05:37:27;;;;;;;3.10;2.42;;;;;;;4.53;100.00;99465.44;5158099;27;20084;-63
2023/10/10 05:39:56;;;;;;;4.38;1.80;;;;;;;4.62;100.00;99403.78;5158144;27;20124;-62
2023/10/10 05:42:25;;;;;;;7.25;1.80;;;;;;;4.65;100.00;99375.22;5157033;27;20061;-63
2023/10/10 05:44:51;;;;;;;3.38;1.85;;;;;;;4.61;100.00;99325.38;5158620;27;20413;-64
2023/10/10 05:47:17;;;;;;;6.43;1.80;;;;;;;4.88;100.00;99286.19;5157903;27;20507;-64
2023/10/10 05:49:43;;;;;;;4.65;1.80;;;;;;;4.74;100.00;99234.78;5158124;27;20050;-63
2023/10/10 05:52:10;;;;;;;2.78;2.05;;;;;;;4.72;100.00;99183.50;5158368;27;20373;-63
2023/10/10 05:54:36;;;;;;;2.88;1.52;;;;;;;4.61;100.00;99214.84;5157785;27;20403;-62
2023/10/10 05:57:03;;;;;;;2.65;1.92;;;;;;;4.47;100.00;99174.31;5158134;27;20153;-58
2023/10/10 05:59:28;;;;;;;6.93;2.28;;;;;;;4.63;100.00;99182.75;5158075;27;20129;-62
2023/10/10 06:01:55;;;;;;;2.40;1.40;;;;;;;4.39;100.00;99142.56;5158199;27;20145;-58
2023/10/10 06:04:21;;;;;;;6.32;1.73;;;;;;;4.38;100.00;99156.47;5158130;27;20050;-60
2023/10/10 06:06:47;;;;;;;3.08;1.80;;;;;;;4.51;100.00;99141.91;5158186;27;20138;-59
2023/10/10 06:09:18;;;;;;;1.67;1.50;;;;;;;4.62;100.00;99178.41;5157706;27;20121;-59
2023/10/10 06:11:44;;;;;;;1.85;1.42;;;;;;;4.48;100.00;99142.53;5158074;27;20065;-57
2023/10/10 06:14:11;;;;;;;2.25;1.75;;;;;;;4.43;100.00;99137.28;5157653;27;20392;-59
2023/10/10 06:16:37;;;;;;;3.55;1.58;;;;;;;4.52;100.00;99173.34;5157836;27;20046;-63
2023/10/10 06:19:03;;;;;;;2.53;1.58;;;;;;;4.73;100.00;99075.66;5157957;27;20043;-61
2023/10/10 06:21:29;;;;;;;4.40;1.67;;;;;;;4.99;100.00;98945.09;5157290;27;20183;-57
2023/10/10 06:23:55;;;;;;;5.50;1.75;;;;;;;5.03;100.00;98848.22;5157852;27;20063;-60
2023/10/10 06:26:21;;;;;;;8.30;1.77;;;;;;;5.47;100.00;98730.84;5157432;27;20057;-60
2023/10/10 06:28:51;;;;;;;3.55;1.55;;;;;;;6.36;100.00;98568.19;5157616;27;20051;-59
2023/10/10 06:31:19;;;;;;;3.50;1.88;;;;;;;6.51;100.00;98457.66;5157340;27;20055;-52
2023/10/10 06:33:49;;;;;;;1.75;1.50;;;;;;;6.17;100.00;98425.78;5157852;27;20046;-60
2023/10/10 06:36:32;;;;;;;1.67;1.52;;;;;;;5.95;100.00;98425.25;5156856;27;20050;-61
2023/10/10 06:41:47;;;;;;;5.93;1.40;;;;;;;6.29;100.00;98420.22;5157750;27;20107;-58
2023/10/10 06:44:13;;;;;;;3.33;1.25;;;;;;;5.95;100.00;98429.91;5157187;27;20050;-57
2023/10/10 06:46:40;;;;;;;4.60;1.23;;;;;;;5.52;100.00;98439.69;5157358;27;20451;-62
2023/10/10 06:49:06;;;;;;;5.53;1.33;;;;;;;5.48;100.00;98441.53;5157343;27;20069;-57
2023/10/10 06:51:33;;;;;;;0.90;0.90;;;;;;;5.66;100.00;98435.41;5157087;27;20057;-59
2023/10/10 06:53:59;;;;;;;3.10;1.00;;;;;;;5.46;100.00;98439.13;5158974;27;20042;-60
2023/10/10 06:56:44;;;;;;;2.35;1.30;;;;;;;5.59;100.00;98442.59;5161177;27;20467;-56
2023/10/10 06:59:16;;;;;;;;;;;;;;;5.66;100.00;98443.56;5160402;27;20068;-59
2023/10/10 07:01:45;;;;;;;7.22;1.25;;;;;;;5.39;100.00;98449.81;5155850;27;19923;-59
2023/10/10 07:04:13;;;;;;;1.85;1.27;;;;;;;5.59;100.00;98448.03;5160781;27;20046;-60
2023/10/10 07:06:43;;;;;;;1.67;1.08;;;;;;;5.73;100.00;98453.84;5160431;27;20107;-57
2023/10/10 07:09:14;;;;;;;1.45;1.27;;;;;;;5.78;100.00;98450.84;5160874;27;20078;-55
2023/10/10 07:11:40;;;;;;;3.28;1.23;;;;;;;5.63;100.00;98457.06;5160348;27;20061;-59
2023/10/10 07:14:09;;;;;;;4.22;1.02;;;;;;;5.60;100.00;98449.63;5160609;27;20043;-56
2023/10/10 07:16:35;;;;;;;4.65;1.17;;;;;;;5.76;100.00;98455.84;5160508;27;20129;-62
2023/10/10 07:19:19;;;;;;;4.32;1.20;;;;;;;5.57;100.00;98456.53;5160770;27;20085;-59
2023/10/10 07:21:44;;;;;;;4.13;1.52;;;;;;;5.41;100.00;98464.66;5160038;27;20146;-57
2023/10/10 07:24:13;;;;;;;3.00;1.17;;;;;;;5.90;100.00;98469.03;5160492;27;20054;-59
2023/10/10 07:26:41;;;;;;;1.85;1.15;;;;;;;6.09;100.00;98466.41;5160537;27;20141;-60
2023/10/10 07:31:47;;;;;;;1.50;1.00;;;;;;;6.47;100.00;98461.47;5159921;27;20051;-57
2023/10/10 07:34:15;;;;;;;1.35;1.10;;;;;;;6.35;100.00;98468.59;5160114;27;20042;-60
2023/10/10 07:36:43;;;;;;;4.13;1.70;;;;;;;6.46;100.00;98473.47;5160709;27;20046;-61
2023/10/10 07:39:32;;;;;;;1.33;1.00;;;;;;;6.40;100.00;98480.34;5159941;27;20051;-61
2023/10/10 07:41:58;;;;;;;1.52;1.30;;;;;;;6.83;100.00;98495.72;5159864;27;20119;-62
2023/10/10 07:44:25;;;;;;;1.35;1.17;;;;;;;6.89;100.00;98510.63;5160172;27;20399;-61
2023/10/10 07:49:37;;;;;;;2.38;1.63;;;;;;;7.08;100.00;98589.72;5160059;27;20085;-59
2023/10/10 07:52:04;;;;;;;1.80;1.67;;;;;;;7.82;100.00;98616.19;5159912;27;20066;-61
2023/10/10 07:54:38;;;;;;;2.75;2.55;;;;;;;8.75;100.00;98723.69;5160293;27;20051;-59
2023/10/10 07:57:07;;;;;;;3.45;1.73;;;;;;;8.34;100.00;98797.81;5159833;27;20042;-58
2023/10/10 07:59:37;;;;;;;1.52;1.40;;;;;;;7.94;100.00;98795.41;5160031;27;20066;-62
2023/10/10 08:02:19;;;;;;;7.28;1.45;;;;;;;7.32;100.00;98789.66;5159566;27;20057;-62
2023/10/10 08:04:49;;;;;;;1.83;1.05;;;;;;;7.41;100.00;98773.13;5158862;27;20051;-62
2023/10/10 08:07:18;;;;;;;2.42;2.03;;;;;;;7.23;100.00;98726.34;5153296;27;20062;-60
2023/10/10 08:09:45;;;;;;;11.65;1.58;;;;;;;7.21;100.00;98723.97;5138445;27;20138;-60
2023/10/10 08:12:11;;;;;;;9.77;1.50;;;;;;;8.32;100.00;98788.41;5139128;28;20074;-61
2023/10/10 08:14:39;;;;;;;2.95;1.45;;;;;;;8.83;100.00;98865.59;5138939;28;20393;-60
2023/10/10 08:17:18;;;;;;;2.55;1.27;;;;;;;8.54;100.00;98907.16;5139460;28;20058;-60
2023/10/10 08:19:50;;;;;;;2.92;1.35;;;;;;;8.27;100.00;98854.25;5138600;28;20080;-59
2023/10/10 08:22:18;;;;;;;2.13;1.50;;;;;;;8.14;100.00;98848.91;5139555;28;20401;-57
2023/10/10 08:24:44;;;;;;;3.65;1.25;;;;;;;9.08;100.00;98825.06;5138541;28;20055;-60
2023/10/10 08:27:11;;;;;;;3.33;1.00;;;;;;;9.11;100.00;98924.72;5138611;28;20047;-54
2023/10/10 08:29:38;;;;;;;1.13;1.02;;;;;;;8.20;100.00;98928.63;5138627;28;20059;-60
2023/10/10 08:32:05;;;;;;;1.63;1.38;;;;;;;8.11;100.00;98887.03;5138579;28;20321;-57
2023/10/10 08:34:31;;;;;;;1.67;1.20;;;;;;;7.99;100.00;98817.75;5138473;28;20507;-60
2023/10/10 08:37:03;;;;;;;1.75;1.33;;;;;;;7.60;100.00;98811.41;5138466;28;20055;-59
2023/10/10 08:39:35;;;;;;;1.83;1.20;;;;;;;8.44;100.00;98827.34;5138526;28;20305;-60
2023/10/10 08:42:05;;;;;;;4.82;1.30;;;;;;;9.82;100.00;98917.81;5138249;28;20070;-54
2023/10/10 08:44:37;;;;;;;1.58;1.20;;;;;;;9.71;100.00;99026.34;5138545;28;20047;-61
2023/10/10 08:47:05;;;;;;;1.10;1.00;;;;;;;8.77;100.00;99014.63;5138214;28;20059;-60
2023/10/10 08:49:31;;;;;;;3.47;1.55;;;;;;;8.06;100.00;98983.66;5138666;28;20195;-61
2023/10/10 08:52:02;;;;;;;1.50;1.00;;;;;;;8.32;100.00;98964.00;5138152;28;20100;-59
2023/10/10 08:54:29;;;;;;;4.75;2.05;;;;;;;9.90;100.00;98992.66;5137892;28;20050;-60
2023/10/10 08:56:59;;;;;;;2.35;1.45;;;;;;;10.36;100.00;99037.31;5138054;28;20389;-62
2023/10/10 08:59:28;;;;;;;1.95;1.17;;;;;;;9.35;100.00;99042.03;5137776;28;20112;-62
2023/10/10 09:01:55;;;;;;;3.30;1.67;;;;;;;8.85;100.00;99010.13;5138247;28;20047;-60
2023/10/10 09:04:30;;;;;;;1.20;1.10;;;;;;;8.57;100.00;98977.47;5137802;28;20065;-60
2023/10/10 09:06:59;;;;;;;3.83;1.00;;;;;;;9.06;100.00;98996.09;5138193;28;20043;-63
2023/10/10 09:09:37;;;;;;;4.53;1.23;;;;;;;10.18;100.00;99047.13;5137735;28;20047;-61
2023/10/10 09:12:12;;;;;;;2.63;1.13;;;;;;;11.36;100.00;99078.34;5137992;28;20409;-63
2023/10/10 09:14:42;;;;;;;2.10;0.95;;;;;;;11.04;100.00;99115.16;5137610;28;20397;-59
2023/10/10 09:17:09;;;;;;;1.70;1.08;;;;;;;11.08;100.00;99123.44;5137580;27;20412;-61
2023/10/10 09:19:40;;;;;;;1.70;0.82;;;;;;;10.57;100.00;99112.81;5137900;28;20051;-58
2023/10/10 09:22:25;;;;;;;0.80;0.80;;;;;;;10.87;100.00;99134.88;5137635;28;20051;-61
2023/10/10 09:24:55;;;;;;;0.90;0.90;;;;;;;10.58;100.00;99128.13;5137880;28;20097;-61
2023/10/10 09:27:23;;;;;;;2.13;1.35;;;;;;;10.10;100.00;99130.34;5137492;28;20371;-61
2023/10/10 09:29:54;;;;;;;0.80;0.80;;;;;;;10.38;100.00;99132.06;5137727;28;20051;-59
2023/10/10 09:32:27;;;;;;;1.13;1.02;;;;;;;9.93;100.00;99106.13;5137230;28;20100;-61
2023/10/10 09:34:54;;;;;;;0.73;0.70;;;;;;;10.82;100.00;99135.16;5137264;28;20054;-61
2023/10/10 09:37:30;;;;;;;0.93;0.93;;;;;;;10.72;100.00;99144.78;5137727;28;20051;-61
2023/10/10 09:39:56;;;;;;;0.82;0.82;;;;;;;10.03;100.00;99141.16;5137413;28;20066;-62
2023/10/10 09:42:44;;;;;;;0.88;0.88;;;;;;;10.06;100.00;99127.56;5137484;28;20058;-61
2023/10/10 09:45:35;;;;;;;0.95;0.85;;;;;;;9.56;100.00;99131.19;5137299;28;20047;-62
2023/10/10 09:48:06;;;;;;;2.65;1.05;;;;;;;10.01;100.00;99111.41;5137904;28;20066;-62
2023/10/10 09:50:37;;;;;;;1.88;1.00;;;;;;;10.07;100.00;99126.38;5137250;28;20051;-59
2023/10/10 09:53:19;;;;;;;1.35;1.05;;;;;;;10.22;100.00;99118.44;5137250;28;20058;-62
2023/10/10 09:55:45;;;;;;;1.55;1.02;;;;;;;10.25;100.00;99128.66;5137101;28;20450;-59
2023/10/10 09:58:25;;;;;;;1.48;0.90;;;;;;;10.35;100.00;99144.53;5137147;28;20043;-61
2023/10/10 10:00:52;;;;;;;2.25;1.45;;;;;;;11.06;100.00;99142.19;5137384;28;20061;-62
2023/10/10 10:03:31;;;;;;;2.88;1.10;;;;;;;10.86;100.00;99159.91;5136899;28;20051;-60
2023/10/10 10:06:05;;;;;;;1.83;1.30;;;;;;;10.98;100.00;99141.31;5137750;28;20055;-61
2023/10/10 10:08:37;;;;;;;0.85;0.85;;;;;;;10.59;100.00;99154.34;5137005;28;20054;-61
2023/10/10 10:11:11;;;;;;;1.00;0.90;;;;;;;10.20;100.00;99153.63;5136709;28;20051;-62
2023/10/10 10:13:57;;;;;;;2.28;0.90;;;;;;;9.65;100.00;99127.09;5137182;28;20046;-61
2023/10/10 10:16:32;;;;;;;2.03;1.42;;;;;;;9.38;100.00;99096.06;5136698;28;20458;-61
2023/10/10 10:19:14;;;;;;;4.10;1.10;;;;;;;9.97;100.00;99113.28;5137174;28;20062;-61
2023/10/10 10:21:52;;;;;;;1.10;1.00;;;;;;;10.01;100.00;99121.56;5136961;28;20066;-60
2023/10/10 10:24:26;;;;;;;2.95;1.23;;;;;;;10.24;100.00;99135.31;5136831;28;20142;-61
2023/10/10 10:27:11;;;;;;;;;;;;;;;10.83;100.00;99142.25;5137216;28;20401;-62
2023/10/10 10:29:42;;;;;;;1.17;0.88;;;;;;;10.25;100.00;99148.63;5139820;28;19988;-61
2023/10/10 10:32:12;;;;;;;4.05;1.90;;;;;;;10.68;100.00;99143.16;5140707;28;20055;-61
2023/10/10 10:34:45;;;;;;;1.27;1.00;;;;;;;10.64;100.00;99143.09;5140271;28;20451;-62
2023/10/10 10:37:20;;;;;;;2.25;1.40;;;;;;;10.28;100.00;99136.19;5140753;28;20051;-59
2023/10/10 10:42:28;;;;;;;1.65;1.23;;;;;;;10.19;100.00;99144.59;5139648;28;20046;-61
2023/10/10 10:44:58;;;;;;;1.52;1.08;;;;;;;9.99;100.00;99145.78;5140109;28;20401;-61
2023/10/10 10:47:45;;;;;;;3.05;1.35;;;;;;;10.12;100.00;99128.81;5140032;28;20047;-62
2023/10/10 10:50:28;;;;;;;3.03;1.15;;;;;;;9.67;100.00;99124.03;5140350;28;20051;-60
2023/10/10 10:52:58;;;;;;;4.18;1.70;;;;;;;10.03;100.00;99111.84;5140070;28;20051;-61
2023/10/10 10:55:27;;;;;;;3.65;1.27;;;;;;;10.17;100.00;99129.69;5140389;28;20190;-61
2023/10/10 10:58:05;;;;;;;1.77;1.15;;;;;;;10.00;100.00;99118.03;5139920;28;20051;-60
2023/10/10 11:03:23;;;;;;;2.25;1.65;;;;;;;10.09;100.00;99115.84;5139891;28;20051;-59
2023/10/10 11:05:53;;;;;;;3.85;1.60;;;;;;;10.08;100.00;99106.06;5139926;28;20055;-61
2023/10/10 11:08:45;;;;;;;2.78;1.67;;;;;;;10.14;100.00;99114.78;5140229;28;20051;-60
2023/10/10 11:11:23;;;;;;;1.73;1.13;;;;;;;9.86;100.00;99121.28;5139361;28;20047;-61
2023/10/10 11:13:50;;;;;;;1.63;1.30;;;;;;;10.04;100.00;99120.84;5139754;28;20133;-60
2023/10/10 11:16:18;;;;;;;4.45;1.67;;;;;;;9.87;100.00;99094.69;5140012;28;20057;-60
2023/10/10 11:18:44;;;;;;;1.83;1.35;;;;;;;9.92;100.00;99090.88;5139869;28;20103;-59
2023/10/10 11:21:11;;;;;;;2.00;1.60;;;;;;;9.96;100.00;99097.19;5140118;28;20054;-62
2023/10/10 11:23:41;;;;;;;1.60;1.50;;;;;;;9.89;100.00;99078.69;5139746;28;20294;-63
2023/10/10 11:26:08;;;;;;;2.97;1.77;;;;;;;9.83;100.00;99070.00;5139825;28;20051;-61
2023/10/10 11:28:37;;;;;;;3.80;1.77;;;;;;;9.56;100.00;99068.25;5139532;28;20477;-60
2023/10/10 11:31:07;;;;;;;3.53;1.50;;;;;;;9.31;100.00;99048.59;5139555;28;20051;-63
2023/10/10 11:33:48;;;;;;;3.03;1.35;;;;;;;9.15;100.00;99041.25;5140022;28;20053;-59
2023/10/10 11:36:21;;;;;;;1.73;1.60;;;;;;;9.17;100.00;99008.88;5139548;28;20048;-59
2023/10/10 11:38:55;;;;;;;5.28;1.85;;;;;;;9.13;100.00;98998.97;5139625;27;20083;-61
2023/10/10 11:41:28;;;;;;;3.53;1.45;;;;;;;9.51;100.00;99014.63;5138276;28;20051;-60
2023/10/10 11:44:01;;;;;;;4.57;1.80;;;;;;;9.64;100.00;99015.25;5139418;28;20054;-60
2023/10/10 11:46:27;;;;;;;4.75;1.80;;;;;;;9.74;100.00;99017.41;5139235;28;20051;-60
2023/10/10 11:48:55;;;;;;;6.20;2.05;;;;;;;9.48;100.00;99022.75;5139675;28;20413;-61
2023/10/10 11:51:33;;;;;;;4.68;2.20;;;;;;;9.69;100.00;99025.09;5138967;28;20290;-61
2023/10/10 11:53:58;;;;;;;2.28;1.60;;;;;;;9.49;100.00;99065.38;5139529;28;20232;-61
2023/10/10 11:56:25;;;;;;;2.90;1.50;;;;;;;9.48;100.00;99069.28;5138878;28;20104;-61
2023/10/10 11:58:52;;;;;;;2.20;1.80;;;;;;;9.74;100.00;99080.38;5139104;28;20054;-60
2023/10/10 12:01:47;;;;;;;2.00;1.40;;;;;;;9.60;100.00;99071.88;5139016;28;20072;-59
2023/10/10 12:04:20;;;;;;;3.10;1.50;;;;;;;9.64;100.00;99075.47;5138564;28;20047;-61
2023/10/10 12:06:46;;;;;;;2.10;1.45;;;;;;;9.57;100.00;99080.81;5138985;28;20054;-62
2023/10/10 12:09:16;;;;;;;2.35;1.40;;;;;;;9.68;100.00;99072.81;5154612;27;20050;-60
2023/10/10 12:11:42;;;;;;;1.83;1.27;;;;;;;9.40;100.00;99085.56;5159489;27;20373;-60
2023/10/10 12:14:11;;;;;;;3.70;1.85;;;;;;;9.19;100.00;99057.72;5159363;27;20043;-57
2023/10/10 12:16:37;;;;;;;2.33;1.25;;;;;;;9.13;100.00;99045.47;5159920;27;20138;-62
2023/10/10 12:19:05;;;;;;;3.90;1.67;;;;;;;9.10;100.00;99022.38;5159070;27;20675;-61
2023/10/10 12:21:32;;;;;;;3.92;1.63;;;;;;;8.95;100.00;99039.63;5158943;27;20062;-57
2023/10/10 12:23:58;;;;;;;1.98;1.27;;;;;;;8.90;100.00;99032.50;5143979;27;20134;-63
2023/10/10 12:26:24;;;;;;;2.35;1.30;;;;;;;8.89;100.00;99030.91;5138753;27;20053;-62
2023/10/10 12:28:52;;;;;;;4.13;1.42;;;;;;;8.67;100.00;99037.06;5152202;27;20050;-61
2023/10/10 12:31:18;;;;;;;1.52;1.42;;;;;;;8.48;100.00;99007.72;5159237;27;20050;-58
2023/10/10 12:33:45;;;;;;;2.25;1.58;;;;;;;8.51;100.00;98987.88;5159554;27;20324;-62
2023/10/10 12:36:11;;;;;;;1.52;1.30;;;;;;;8.37;100.00;98961.00;5159168;27;20107;-63
2023/10/10 12:38:38;;;;;;;3.50;1.52;;;;;;;8.53;100.00;98963.75;5159551;27;20338;-63
2023/10/10 12:41:05;;;;;;;2.35;1.70;;;;;;;8.59;100.00;98959.56;5159075;27;20073;-62
2023/10/10 12:43:31;;;;;;;2.60;1.38;;;;;;;8.67;100.00;98935.94;5159456;27;20058;-63
2023/10/10 12:46:00;;;;;;;2.45;1.63;;;;;;;8.88;100.00;98947.31;5158423;27;20054;-61
2023/10/10 12:48:28;;;;;;;4.32;1.80;;;;;;;9.03;100.00;98962.09;5158600;27;20042;-64
2023/10/10 12:50:54;;;;;;;1.52;1.33;;;;;;;8.90;100.00;98936.81;5158641;27;20102;-60
2023/10/10 12:53:21;;;;;;;2.50;1.40;;;;;;;8.87;100.00;98959.41;5158962;27;20141;-60
2023/10/10 12:55:49;;;;;;;1.92;1.48;;;;;;;8.59;100.00;98964.25;5158738;27;20077;-55
2023/10/10 12:58:16;;;;;;;1.98;1.40;;;;;;;8.63;100.00;98943.25;5158658;27;20051;-59
2023/10/10 13:00:50;;;;;;;2.90;1.63;;;;;;;8.71;100.00;98945.00;5159257;27;20099;-61
2023/10/10 13:03:17;;;;;;;4.10;1.45;;;;;;;8.55;100.00;98964.16;5158753;27;20082;-57
2023/10/10 13:05:47;;;;;;;1.85;1.20;;;;;;;8.42;100.00;98949.81;5158791;27;20313;-61
2023/10/10 13:08:14;;;;;;;5.60;1.50;;;;;;;8.31;100.00;98940.56;5158482;27;20043;-58
2023/10/10 13:10:41;;;;;;;2.88;1.63;;;;;;;8.44;100.00;98917.47;5158854;27;20047;-59
2023/10/10 13:13:07;;;;;;;3.20;1.38;;;;;;;8.36;100.00;98926.63;5158789;27;20133;-61
2023/10/10 13:15:47;;;;;;;2.42;1.42;;;;;;;8.39;100.00;98911.50;5158248;27;20058;-60
2023/10/10 13:18:19;;;;;;;1.63;1.50;;;;;;;8.28;100.00;98911.22;5158774;27;20134;-59
2023/10/10 13:20:50;;;;;;;1.70;1.30;;;;;;;8.34;100.00;98919.94;5158518;27;20061;-56
2023/10/10 13:23:16;;;;;;;1.42;1.33;;;;;;;8.37;100.00;98932.91;5159000;27;20050;-58
2023/10/10 13:25:42;;;;;;;2.13;1.50;;;;;;;8.41;100.00;98911.94;5158027;27;20103;-60
2023/10/10 13:28:09;;;;;;;1.33;1.20;;;;;;;8.24;100.00;98891.25;5158670;27;20046;-61
2023/10/10 13:30:38;;;;;;;3.28;1.60;;;;;;;8.45;100.00;98924.53;5158043;27;20046;-58
2023/10/10 13:33:05;;;;;;;1.92;1.38;;;;;;;8.36;100.00;98896.56;5158721;27;20077;-58
2023/10/10 13:35:31;;;;;;;1.83;1.30;;;;;;;8.34;100.00;98936.34;5158057;27;20483;-59
2023/10/10 13:37:57;;;;;;;3.17;0.98;;;;;;;8.32;100.00;98971.41;5158480;27;20046;-59
2023/10/10 13:40:22;;;;;;;1.35;1.10;;;;;;;8.35;100.00;98981.63;5158326;27;20050;-59
2023/10/10 13:42:49;;;;;;;1.15;1.08;;;;;;;8.34;100.00;98991.75;5158333;27;20146;-60
2023/10/10 13:45:21;;;;;;;1.85;1.10;;;;;;;8.31;100.00;98978.81;5158203;27;20134;-56
2023/10/10 13:47:48;;;;;;;1.17;0.93;;;;;;;8.22;100.00;98939.94;5158154;27;20050;-56
2023/10/10 13:50:28;;;;;;;1.50;1.10;;;;;;;8.32;100.00;98969.44;5158396;27;20081;-59